sensor_id;sensor_type;location;lat;lon;timestamp;P1;durP1;ratioP1;P2;durP2;ratioP2
12179;SDS011;6153;51.490;6.586;2022-08-16T03:53:11;3.60;;;2.93;;
12179;SDS011;6153;51.490;6.586;2022-08-16T03:56:11;4.00;;;3.00;;
12179;SDS011;6153;51.490;6.586;2022-08-16T03:59:12;4.87;;;3.10;;
12179;SDS011;6153;51.490;6.586;2022-08-16T04:02:13;4.72;;;3.08;;
12179;SDS011;6153;51.490;6.586;2022-08-16T04:05:14;4.28;;;2.85;;
12179;SDS011;6153;51.490;6.586;2022-08-16T04:08:16;3.33;;;3.00;;
12179;SDS011;6153;51.490;6.586;2022-08-16T04:11:19;4.80;;;3.00;;
12179;SDS011;6153;51.490;6.586;2022-08-16T04:14:20;4.25;;;3.10;;
12179;SDS011;6153;51.490;6.586;2022-08-16T04:17:21;3.17;;;2.67;;
12179;SDS011;6153;51.490;6.586;2022-08-16T04:20:22;5.50;;;3.10;;
12179;SDS011;6153;51.490;6.586;2022-08-16T04:23:23;3.73;;;3.20;;
12179;SDS011;6153;51.490;6.586;2022-08-16T04:26:23;3.45;;;3.10;;
12179;SDS011;6153;51.490;6.586;2022-08-16T04:29:24;4.13;;;3.35;;
12179;SDS011;6153;51.490;6.586;2022-08-16T04:32:26;5.05;;;3.60;;
12179;SDS011;6153;51.490;6.586;2022-08-16T04:35:27;5.13;;;3.53;;
12179;SDS011;6153;51.490;6.586;2022-08-16T04:38:27;5.27;;;3.70;;
12179;SDS011;6153;51.490;6.586;2022-08-16T04:41:28;5.25;;;3.78;;
12179;SDS011;6153;51.490;6.586;2022-08-16T04:44:30;5.13;;;3.17;;
12179;SDS011;6153;51.490;6.586;2022-08-16T06:08:51;5.05;;;3.40;;
12179;SDS011;6153;51.490;6.586;2022-08-16T06:11:52;6.07;;;4.00;;
12179;SDS011;6153;51.490;6.586;2022-08-16T06:14:52;4.87;;;3.93;;
12179;SDS011;6153;51.490;6.586;2022-08-16T06:17:57;6.28;;;3.97;;
12179;SDS011;6153;51.490;6.586;2022-08-16T06:20:58;6.15;;;4.20;;
12179;SDS011;6153;51.490;6.586;2022-08-16T06:23:59;5.95;;;4.22;;
12179;SDS011;6153;51.490;6.586;2022-08-16T06:27:00;8.27;;;4.70;;
12179;SDS011;6153;51.490;6.586;2022-08-16T06:30:01;8.80;;;4.82;;
12179;SDS011;6153;51.490;6.586;2022-08-16T06:33:02;8.33;;;4.63;;
12179;SDS011;6153;51.490;6.586;2022-08-16T06:36:03;9.43;;;5.20;;
12179;SDS011;6153;51.490;6.586;2022-08-16T06:39:03;11.83;;;5.20;;
12179;SDS011;6153;51.490;6.586;2022-08-16T07:36:19;5.90;;;4.93;;
12179;SDS011;6153;51.490;6.586;2022-08-16T07:39:21;6.57;;;5.18;;
12179;SDS011;6153;51.490;6.586;2022-08-16T07:42:22;7.50;;;4.50;;
12179;SDS011;6153;51.490;6.586;2022-08-16T07:45:22;8.33;;;6.03;;
12179;SDS011;6153;51.490;6.586;2022-08-16T10:10:05;6.10;;;4.20;;
12179;SDS011;6153;51.490;6.586;2022-08-16T10:13:06;7.30;;;4.60;;
12179;SDS011;6153;51.490;6.586;2022-08-16T10:16:13;4.68;;;4.00;;
12179;SDS011;6153;51.490;6.586;2022-08-16T10:19:14;7.23;;;3.87;;
12179;SDS011;6153;51.490;6.586;2022-08-16T10:22:16;5.45;;;4.18;;
12179;SDS011;6153;51.490;6.586;2022-08-16T10:25:17;5.45;;;4.22;;
12179;SDS011;6153;51.490;6.586;2022-08-16T10:28:18;5.88;;;4.00;;
12179;SDS011;6153;51.490;6.586;2022-08-16T10:31:19;6.70;;;3.80;;
12179;SDS011;6153;51.490;6.586;2022-08-16T10:34:20;7.85;;;3.90;;
12179;SDS011;6153;51.490;6.586;2022-08-16T10:37:21;8.15;;;3.60;;
12179;SDS011;6153;51.490;6.586;2022-08-16T10:40:22;5.20;;;4.00;;
12179;SDS011;6153;51.490;6.586;2022-08-16T10:43:23;5.40;;;3.90;;
12179;SDS011;6153;51.490;6.586;2022-08-16T10:46:24;4.33;;;3.07;;
12179;SDS011;6153;51.490;6.586;2022-08-16T10:49:25;6.03;;;3.75;;
12179;SDS011;6153;51.490;6.586;2022-08-16T10:52:25;4.65;;;3.22;;
12179;SDS011;6153;51.490;6.586;2022-08-16T10:55:26;7.28;;;3.80;;
12179;SDS011;6153;51.490;6.586;2022-08-16T10:58:27;3.90;;;3.20;;
12179;SDS011;6153;51.490;6.586;2022-08-16T11:01:28;4.43;;;3.40;;
12179;SDS011;6153;51.490;6.586;2022-08-16T11:04:28;4.57;;;3.53;;
12179;SDS011;6153;51.490;6.586;2022-08-16T11:07:29;4.40;;;3.60;;
12179;SDS011;6153;51.490;6.586;2022-08-16T11:10:30;5.67;;;3.17;;
12179;SDS011;6153;51.490;6.586;2022-08-16T11:13:34;4.70;;;3.17;;
12179;SDS011;6153;51.490;6.586;2022-08-16T11:16:35;6.07;;;3.20;;
12179;SDS011;6153;51.490;6.586;2022-08-16T11:19:36;8.68;;;3.85;;
12179;SDS011;6153;51.490;6.586;2022-08-16T11:22:39;5.93;;;3.28;;
12179;SDS011;6153;51.490;6.586;2022-08-16T11:25:41;4.32;;;3.53;;
12179;SDS011;6153;51.490;6.586;2022-08-16T11:28:42;5.80;;;2.90;;
12179;SDS011;6153;51.490;6.586;2022-08-16T11:31:43;6.90;;;3.80;;
12179;SDS011;6153;51.490;6.586;2022-08-16T11:34:45;4.50;;;3.10;;
12179;SDS011;6153;51.490;6.586;2022-08-16T11:37:47;4.40;;;3.27;;
12179;SDS011;6153;51.490;6.586;2022-08-16T11:40:52;4.45;;;2.95;;
12179;SDS011;6153;51.490;6.586;2022-08-16T11:43:56;5.70;;;3.50;;
12179;SDS011;6153;51.490;6.586;2022-08-16T11:46:57;4.95;;;3.20;;
12179;SDS011;6153;51.490;6.586;2022-08-16T11:49:58;5.03;;;3.10;;
12179;SDS011;6153;51.490;6.586;2022-08-16T11:53:00;3.27;;;2.97;;
12179;SDS011;6153;51.490;6.586;2022-08-16T11:56:01;6.00;;;3.10;;
12179;SDS011;6153;51.490;6.586;2022-08-16T11:59:02;5.77;;;2.97;;
12179;SDS011;6153;51.490;6.586;2022-08-16T12:02:03;3.38;;;2.90;;
12179;SDS011;6153;51.490;6.586;2022-08-16T12:05:08;3.72;;;3.03;;
12179;SDS011;6153;51.490;6.586;2022-08-16T12:08:11;6.13;;;2.95;;
12179;SDS011;6153;51.490;6.586;2022-08-16T12:11:13;4.88;;;3.95;;
12179;SDS011;6153;51.490;6.586;2022-08-16T12:14:16;4.78;;;3.63;;
12179;SDS011;6153;51.490;6.586;2022-08-16T12:17:18;5.38;;;3.47;;
12179;SDS011;6153;51.490;6.586;2022-08-16T12:38:31;5.27;;;3.20;;
12179;SDS011;6153;51.490;6.586;2022-08-16T12:41:33;3.77;;;3.30;;
12179;SDS011;6153;51.490;6.586;2022-08-16T12:44:36;3.20;;;2.90;;
12179;SDS011;6153;51.490;6.586;2022-08-16T12:47:37;3.97;;;3.45;;
12179;SDS011;6153;51.490;6.586;2022-08-16T12:50:56;4.03;;;3.10;;
12179;SDS011;6153;51.490;6.586;2022-08-16T12:53:58;3.77;;;2.67;;
12179;SDS011;6153;51.490;6.586;2022-08-16T12:57:00;3.53;;;3.22;;
12179;SDS011;6153;51.490;6.586;2022-08-16T13:00:02;6.20;;;3.30;;
12179;SDS011;6153;51.490;6.586;2022-08-16T13:03:11;5.47;;;3.40;;
12179;SDS011;6153;51.490;6.586;2022-08-16T13:06:12;4.63;;;3.22;;
12179;SDS011;6153;51.490;6.586;2022-08-16T13:09:13;4.13;;;2.97;;
12179;SDS011;6153;51.490;6.586;2022-08-16T13:12:22;7.90;;;3.35;;
12179;SDS011;6153;51.490;6.586;2022-08-16T13:15:26;4.38;;;2.80;;
12179;SDS011;6153;51.490;6.586;2022-08-16T13:18:28;6.65;;;3.10;;
12179;SDS011;6153;51.490;6.586;2022-08-16T13:21:29;4.35;;;3.17;;
12179;SDS011;6153;51.490;6.586;2022-08-16T13:24:30;3.27;;;2.90;;
12179;SDS011;6153;51.490;6.586;2022-08-16T13:27:31;5.13;;;2.57;;
12179;SDS011;6153;51.490;6.586;2022-08-16T13:30:33;3.23;;;2.80;;
12179;SDS011;6153;51.490;6.586;2022-08-16T13:33:35;3.80;;;2.90;;
12179;SDS011;6153;51.490;6.586;2022-08-16T13:36:36;3.10;;;2.60;;
12179;SDS011;6153;51.490;6.586;2022-08-16T13:39:37;4.85;;;2.80;;
12179;SDS011;6153;51.490;6.586;2022-08-16T13:45:39;4.10;;;2.80;;
12179;SDS011;6153;51.490;6.586;2022-08-16T13:48:40;4.78;;;2.63;;
12179;SDS011;6153;51.490;6.586;2022-08-16T13:51:41;4.00;;;3.08;;
12179;SDS011;6153;51.490;6.586;2022-08-16T13:54:41;2.90;;;2.60;;
12179;SDS011;6153;51.490;6.586;2022-08-16T14:00:46;4.03;;;2.70;;
12179;SDS011;6153;51.490;6.586;2022-08-16T14:03:46;4.95;;;2.97;;
12179;SDS011;6153;51.490;6.586;2022-08-16T14:06:47;5.13;;;2.75;;
12179;SDS011;6153;51.490;6.586;2022-08-16T14:09:48;2.85;;;2.65;;
12179;SDS011;6153;51.490;6.586;2022-08-16T14:12:48;4.20;;;2.92;;
12179;SDS011;6153;51.490;6.586;2022-08-16T14:15:51;4.28;;;2.78;;
12179;SDS011;6153;51.490;6.586;2022-08-16T14:18:51;5.00;;;3.10;;
12179;SDS011;6153;51.490;6.586;2022-08-16T14:21:54;3.57;;;3.03;;
12179;SDS011;6153;51.490;6.586;2022-08-16T14:24:56;5.07;;;3.30;;
12179;SDS011;6153;51.490;6.586;2022-08-16T14:27:57;3.40;;;2.50;;
12179;SDS011;6153;51.490;6.586;2022-08-16T14:30:58;4.67;;;2.90;;
12179;SDS011;6153;51.490;6.586;2022-08-16T14:33:59;3.17;;;2.57;;
12179;SDS011;6153;51.490;6.586;2022-08-16T14:36:59;2.83;;;2.60;;
12179;SDS011;6153;51.490;6.586;2022-08-16T14:40:07;3.30;;;2.77;;
12179;SDS011;6153;51.490;6.586;2022-08-16T14:43:10;3.60;;;2.77;;
12179;SDS011;6153;51.490;6.586;2022-08-16T14:46:11;3.63;;;2.78;;
12179;SDS011;6153;51.490;6.586;2022-08-16T14:49:11;4.50;;;3.00;;
12179;SDS011;6153;51.490;6.586;2022-08-16T14:52:14;4.00;;;3.10;;
12179;SDS011;6153;51.490;6.586;2022-08-16T14:55:17;3.70;;;3.30;;
12179;SDS011;6153;51.490;6.586;2022-08-16T14:58:18;4.53;;;2.92;;
12179;SDS011;6153;51.490;6.586;2022-08-16T15:01:19;2.83;;;2.50;;
12179;SDS011;6153;51.490;6.586;2022-08-16T15:04:21;4.75;;;2.80;;
12179;SDS011;6153;51.490;6.586;2022-08-16T15:07:22;3.38;;;2.50;;
12179;SDS011;6153;51.490;6.586;2022-08-16T15:10:23;3.20;;;2.90;;
12179;SDS011;6153;51.490;6.586;2022-08-16T15:13:24;5.18;;;2.90;;
12179;SDS011;6153;51.490;6.586;2022-08-16T15:16:25;4.03;;;2.63;;
12179;SDS011;6153;51.490;6.586;2022-08-16T15:19:26;4.03;;;2.90;;
12179;SDS011;6153;51.490;6.586;2022-08-16T15:22:29;5.25;;;2.90;;
12179;SDS011;6153;51.490;6.586;2022-08-16T15:25:32;4.00;;;3.42;;
12179;SDS011;6153;51.490;6.586;2022-08-16T15:28:37;3.55;;;3.25;;
12179;SDS011;6153;51.490;6.586;2022-08-16T15:31:38;3.30;;;2.83;;
12179;SDS011;6153;51.490;6.586;2022-08-16T15:34:40;4.50;;;3.20;;
12179;SDS011;6153;51.490;6.586;2022-08-16T15:37:43;5.80;;;3.10;;
12179;SDS011;6153;51.490;6.586;2022-08-16T15:40:45;3.87;;;2.97;;
12179;SDS011;6153;51.490;6.586;2022-08-16T16:38:09;3.72;;;2.75;;
12179;SDS011;6153;51.490;6.586;2022-08-16T16:41:11;4.90;;;2.93;;
12179;SDS011;6153;51.490;6.586;2022-08-16T16:44:12;3.17;;;2.90;;
12179;SDS011;6153;51.490;6.586;2022-08-16T16:47:13;4.53;;;3.13;;
12179;SDS011;6153;51.490;6.586;2022-08-16T16:50:14;4.10;;;2.80;;
12179;SDS011;6153;51.490;6.586;2022-08-16T16:53:15;4.93;;;2.85;;
12179;SDS011;6153;51.490;6.586;2022-08-16T16:56:16;3.20;;;2.90;;
12179;SDS011;6153;51.490;6.586;2022-08-16T16:59:17;2.97;;;2.78;;
12179;SDS011;6153;51.490;6.586;2022-08-16T17:02:18;3.78;;;2.70;;
12179;SDS011;6153;51.490;6.586;2022-08-16T17:05:19;4.18;;;2.90;;
12179;SDS011;6153;51.490;6.586;2022-08-16T17:08:21;3.30;;;3.00;;
12179;SDS011;6153;51.490;6.586;2022-08-16T17:11:22;5.50;;;3.20;;
12179;SDS011;6153;51.490;6.586;2022-08-16T17:14:24;4.70;;;3.23;;
12179;SDS011;6153;51.490;6.586;2022-08-16T17:17:25;3.38;;;3.08;;
12179;SDS011;6153;51.490;6.586;2022-08-16T17:20:26;4.53;;;3.10;;
12179;SDS011;6153;51.490;6.586;2022-08-16T17:23:27;4.20;;;3.03;;
